sensor_id;sensor_type;location;lat;lon;timestamp;pressure;altitude;pressure_sealevel;temperature;humidity
76808;BME280;65758;45.458;11.062;2023-03-01T00:01:21;101456.09;;;7.47;47.59
76808;BME280;65758;45.458;11.062;2023-03-01T00:03:48;101453.77;;;7.44;47.67
76808;BME280;65758;45.458;11.062;2023-03-01T00:06:15;101448.67;;;7.40;47.68
76808;BME280;65758;45.458;11.062;2023-03-01T00:08:42;101451.31;;;7.39;47.70
76808;BME280;65758;45.458;11.062;2023-03-01T00:11:20;101451.38;;;7.37;47.85
76808;BME280;65758;45.458;11.062;2023-03-01T00:13:48;101444.89;;;7.35;48.62
76808;BME280;65758;45.458;11.062;2023-03-01T00:16:18;101449.64;;;7.34;48.12
76808;BME280;65758;45.458;11.062;2023-03-01T00:18:45;101452.36;;;7.34;48.53
76808;BME280;65758;45.458;11.062;2023-03-01T00:21:13;101444.80;;;7.35;48.35
76808;BME280;65758;45.458;11.062;2023-03-01T00:23:40;101434.64;;;7.36;48.03
76808;BME280;65758;45.458;11.062;2023-03-01T00:26:12;101430.50;;;7.37;48.04
76808;BME280;65758;45.458;11.062;2023-03-01T00:28:41;101430.87;;;7.39;47.93
76808;BME280;65758;45.458;11.062;2023-03-01T00:31:12;101432.72;;;7.40;48.45
76808;BME280;65758;45.458;11.062;2023-03-01T00:33:40;101431.33;;;7.39;48.65
76808;BME280;65758;45.458;11.062;2023-03-01T00:36:08;101425.47;;;7.40;48.07
76808;BME280;65758;45.458;11.062;2023-03-01T00:38:38;101422.12;;;7.39;48.35
76808;BME280;65758;45.458;11.062;2023-03-01T00:41:07;101426.45;;;7.38;49.11
76808;BME280;65758;45.458;11.062;2023-03-01T00:43:36;101428.59;;;7.35;48.79
76808;BME280;65758;45.458;11.062;2023-03-01T00:46:06;101426.06;;;7.28;49.03
76808;BME280;65758;45.458;11.062;2023-03-01T00:48:34;101423.61;;;7.22;49.18
76808;BME280;65758;45.458;11.062;2023-03-01T00:53:32;101418.67;;;7.05;49.31
76808;BME280;65758;45.458;11.062;2023-03-01T00:55:59;101420.52;;;7.01;49.66
76808;BME280;65758;45.458;11.062;2023-03-01T00:58:27;101419.14;;;6.97;49.62
76808;BME280;65758;45.458;11.062;2023-03-01T01:00:53;101412.14;;;6.94;49.52
76808;BME280;65758;45.458;11.062;2023-03-01T01:03:21;101414.52;;;6.91;49.49
76808;BME280;65758;45.458;11.062;2023-03-01T01:05:48;101411.72;;;6.85;49.89
76808;BME280;65758;45.458;11.062;2023-03-01T01:08:14;101403.58;;;6.82;49.99
76808;BME280;65758;45.458;11.062;2023-03-01T01:10:43;101397.98;;;6.74;49.87
76808;BME280;65758;45.458;11.062;2023-03-01T01:13:12;101397.73;;;6.66;50.24
76808;BME280;65758;45.458;11.062;2023-03-01T01:15:38;101395.61;;;6.61;50.16
76808;BME280;65758;45.458;11.062;2023-03-01T01:18:05;101394.96;;;6.55;50.32
76808;BME280;65758;45.458;11.062;2023-03-01T01:20:32;101395.83;;;6.49;50.47
76808;BME280;65758;45.458;11.062;2023-03-01T01:22:59;101393.80;;;6.43;50.67
76808;BME280;65758;45.458;11.062;2023-03-01T01:25:25;101386.65;;;6.38;50.62
76808;BME280;65758;45.458;11.062;2023-03-01T01:27:53;101384.34;;;6.32;50.95
76808;BME280;65758;45.458;11.062;2023-03-01T01:30:19;101382.73;;;6.27;51.12
76808;BME280;65758;45.458;11.062;2023-03-01T01:32:46;101380.04;;;6.21;50.97
76808;BME280;65758;45.458;11.062;2023-03-01T01:35:13;101374.08;;;6.12;51.12
76808;BME280;65758;45.458;11.062;2023-03-01T01:37:39;101370.35;;;6.02;51.52
76808;BME280;65758;45.458;11.062;2023-03-01T01:40:06;101360.38;;;5.93;51.52
76808;BME280;65758;45.458;11.062;2023-03-01T01:42:33;101358.23;;;5.85;51.54
76808;BME280;65758;45.458;11.062;2023-03-01T01:45:40;101354.11;;;5.77;51.60
76808;BME280;65758;45.458;11.062;2023-03-01T01:48:18;101353.94;;;5.68;51.92
76808;BME280;65758;45.458;11.062;2023-03-01T01:50:59;101353.33;;;5.61;51.95
76808;BME280;65758;45.458;11.062;2023-03-01T01:53:27;101348.29;;;5.54;52.42
76808;BME280;65758;45.458;11.062;2023-03-01T01:55:58;101345.90;;;5.50;52.43
76808;BME280;65758;45.458;11.062;2023-03-01T01:58:29;101341.23;;;5.45;52.50
76808;BME280;65758;45.458;11.062;2023-03-01T02:00:56;101340.76;;;5.43;52.69
76808;BME280;65758;45.458;11.062;2023-03-01T02:03:26;101342.30;;;5.42;53.03
76808;BME280;65758;45.458;11.062;2023-03-01T02:06:06;101337.30;;;5.43;52.89
76808;BME280;65758;45.458;11.062;2023-03-01T02:08:36;101333.85;;;5.42;52.75
76808;BME280;65758;45.458;11.062;2023-03-01T02:11:05;101334.06;;;5.39;52.73
76808;BME280;65758;45.458;11.062;2023-03-01T02:13:33;101331.14;;;5.36;52.91
76808;BME280;65758;45.458;11.062;2023-03-01T02:16:05;101325.52;;;5.31;52.87
76808;BME280;65758;45.458;11.062;2023-03-01T02:18:34;101323.45;;;5.25;53.27
76808;BME280;65758;45.458;11.062;2023-03-01T02:21:20;101315.78;;;5.23;53.11
76808;BME280;65758;45.458;11.062;2023-03-01T02:23:53;101308.75;;;5.18;53.67
76808;BME280;65758;45.458;11.062;2023-03-01T02:28:58;101307.58;;;5.14;53.53
76808;BME280;65758;45.458;11.062;2023-03-01T02:31:25;101301.62;;;5.13;53.70
76808;BME280;65758;45.458;11.062;2023-03-01T02:34:14;101298.79;;;5.09;53.82
76808;BME280;65758;45.458;11.062;2023-03-01T02:36:47;101298.33;;;5.07;53.85
76808;BME280;65758;45.458;11.062;2023-03-01T02:39:19;101294.35;;;5.04;53.83
76808;BME280;65758;45.458;11.062;2023-03-01T02:41:51;101290.16;;;5.01;54.03
76808;BME280;65758;45.458;11.062;2023-03-01T02:44:19;101286.98;;;4.99;54.00
76808;BME280;65758;45.458;11.062;2023-03-01T02:46:49;101289.27;;;4.96;54.09
76808;BME280;65758;45.458;11.062;2023-03-01T02:49:26;101284.69;;;4.95;54.24
76808;BME280;65758;45.458;11.062;2023-03-01T02:55:08;101272.80;;;4.92;54.33
76808;BME280;65758;45.458;11.062;2023-03-01T02:57:38;101267.98;;;4.89;54.35
76808;BME280;65758;45.458;11.062;2023-03-01T03:00:12;101263.45;;;4.87;54.43
76808;BME280;65758;45.458;11.062;2023-03-01T03:02:48;101258.36;;;4.87;54.56
76808;BME280;65758;45.458;11.062;2023-03-01T03:05:23;101251.03;;;4.88;54.65
76808;BME280;65758;45.458;11.062;2023-03-01T03:07:53;101250.62;;;4.90;54.76
76808;BME280;65758;45.458;11.062;2023-03-01T03:10:22;101248.95;;;4.92;54.99
76808;BME280;65758;45.458;11.062;2023-03-01T03:12:50;101252.59;;;4.95;54.53
76808;BME280;65758;45.458;11.062;2023-03-01T03:15:18;101254.76;;;4.96;54.69
76808;BME280;65758;45.458;11.062;2023-03-01T03:17:47;101251.35;;;4.99;55.00
76808;BME280;65758;45.458;11.062;2023-03-01T03:20:16;101248.06;;;5.02;55.21
76808;BME280;65758;45.458;11.062;2023-03-01T03:22:47;101251.26;;;5.04;54.86
76808;BME280;65758;45.458;11.062;2023-03-01T03:25:15;101249.26;;;5.05;54.76
76808;BME280;65758;45.458;11.062;2023-03-01T03:27:43;101248.11;;;5.05;55.12
76808;BME280;65758;45.458;11.062;2023-03-01T03:30:13;101245.30;;;5.07;55.20
76808;BME280;65758;45.458;11.062;2023-03-01T03:32:42;101238.13;;;5.10;54.97
76808;BME280;65758;45.458;11.062;2023-03-01T03:35:09;101240.59;;;5.10;54.95
76808;BME280;65758;45.458;11.062;2023-03-01T03:37:38;101246.63;;;5.13;55.26
76808;BME280;65758;45.458;11.062;2023-03-01T03:40:23;101239.10;;;5.19;55.68
76808;BME280;65758;45.458;11.062;2023-03-01T03:42:50;101236.96;;;5.23;55.15
76808;BME280;65758;45.458;11.062;2023-03-01T03:45:17;101237.59;;;5.25;55.15
76808;BME280;65758;45.458;11.062;2023-03-01T03:47:44;101234.39;;;5.26;55.01
76808;BME280;65758;45.458;11.062;2023-03-01T03:50:12;101232.27;;;5.26;54.97
76808;BME280;65758;45.458;11.062;2023-03-01T03:52:40;101234.21;;;5.25;55.05
76808;BME280;65758;45.458;11.062;2023-03-01T03:55:09;101233.57;;;5.22;54.91
76808;BME280;65758;45.458;11.062;2023-03-01T03:57:38;101231.77;;;5.18;55.13
76808;BME280;65758;45.458;11.062;2023-03-01T04:00:06;101231.35;;;5.15;55.09
76808;BME280;65758;45.458;11.062;2023-03-01T04:02:44;101238.10;;;5.16;55.43
76808;BME280;65758;45.458;11.062;2023-03-01T04:05:13;101235.47;;;5.14;55.30
76808;BME280;65758;45.458;11.062;2023-03-01T04:07:42;101236.66;;;5.12;55.15
76808;BME280;65758;45.458;11.062;2023-03-01T04:10:11;101233.45;;;5.08;55.41
76808;BME280;65758;45.458;11.062;2023-03-01T04:12:38;101234.01;;;5.08;55.45
76808;BME280;65758;45.458;11.062;2023-03-01T04:15:06;101233.85;;;5.12;55.88
76808;BME280;65758;45.458;11.062;2023-03-01T04:17:40;101233.42;;;5.16;55.51
76808;BME280;65758;45.458;11.062;2023-03-01T04:20:13;101224.71;;;5.17;55.69
76808;BME280;65758;45.458;11.062;2023-03-01T04:22:40;101224.67;;;5.17;55.71
76808;BME280;65758;45.458;11.062;2023-03-01T04:25:07;101224.67;;;5.17;55.54
76808;BME280;65758;45.458;11.062;2023-03-01T04:27:35;101223.13;;;5.19;55.97
76808;BME280;65758;45.458;11.062;2023-03-01T04:30:03;101225.98;;;5.22;56.04
76808;BME280;65758;45.458;11.062;2023-03-01T04:32:30;101227.30;;;5.26;56.07
76808;BME280;65758;45.458;11.062;2023-03-01T04:34:57;101224.91;;;5.30;56.15
76808;BME280;65758;45.458;11.062;2023-03-01T04:37:23;101217.81;;;5.32;56.06
76808;BME280;65758;45.458;11.062;2023-03-01T04:39:50;101217.32;;;5.33;55.92
76808;BME280;65758;45.458;11.062;2023-03-01T04:42:18;101218.37;;;5.35;56.22
76808;BME280;65758;45.458;11.062;2023-03-01T04:44:45;101220.21;;;5.41;56.20
76808;BME280;65758;45.458;11.062;2023-03-01T04:47:12;101217.23;;;5.46;56.36
76808;BME280;65758;45.458;11.062;2023-03-01T04:49:39;101218.94;;;5.51;56.26
76808;BME280;65758;45.458;11.062;2023-03-01T04:52:06;101220.33;;;5.56;56.54
76808;BME280;65758;45.458;11.062;2023-03-01T04:54:34;101222.52;;;5.60;56.54
76808;BME280;65758;45.458;11.062;2023-03-01T04:57:01;101224.34;;;5.63;56.43
76808;BME280;65758;45.458;11.062;2023-03-01T04:59:28;101228.74;;;5.67;56.41
76808;BME280;65758;45.458;11.062;2023-03-01T05:01:56;101228.87;;;5.72;56.38
76808;BME280;65758;45.458;11.062;2023-03-01T05:04:24;101226.67;;;5.78;56.58
76808;BME280;65758;45.458;11.062;2023-03-01T05:06:51;101221.03;;;5.83;56.46
76808;BME280;65758;45.458;11.062;2023-03-01T05:09:19;101212.52;;;5.88;56.49
76808;BME280;65758;45.458;11.062;2023-03-01T05:11:46;101216.00;;;5.91;56.62
76808;BME280;65758;45.458;11.062;2023-03-01T05:14:13;101208.48;;;5.93;56.28
76808;BME280;65758;45.458;11.062;2023-03-01T05:16:39;101207.95;;;5.93;56.49
76808;BME280;65758;45.458;11.062;2023-03-01T05:19:06;101206.27;;;5.95;56.28
76808;BME280;65758;45.458;11.062;2023-03-01T05:21:42;101205.34;;;5.93;55.88
76808;BME280;65758;45.458;11.062;2023-03-01T05:24:28;101211.45;;;5.85;55.88
76808;BME280;65758;45.458;11.062;2023-03-01T05:26:55;101212.98;;;5.79;56.22
76808;BME280;65758;45.458;11.062;2023-03-01T05:29:22;101210.66;;;5.77;56.06
76808;BME280;65758;45.458;11.062;2023-03-01T05:31:57;101217.01;;;5.74;56.41
76808;BME280;65758;45.458;11.062;2023-03-01T05:34:26;101216.28;;;5.73;56.51
76808;BME280;65758;45.458;11.062;2023-03-01T05:36:53;101217.98;;;5.74;56.77
76808;BME280;65758;45.458;11.062;2023-03-01T05:39:25;101215.29;;;5.74;56.38
76808;BME280;65758;45.458;11.062;2023-03-01T05:42:01;101216.48;;;5.71;56.39
76808;BME280;65758;45.458;11.062;2023-03-01T05:44:28;101215.90;;;5.70;56.86
76808;BME280;65758;45.458;11.062;2023-03-01T05:46:55;101212.98;;;5.73;56.91
76808;BME280;65758;45.458;11.062;2023-03-01T05:49:23;101209.05;;;5.76;57.22
76808;BME280;65758;45.458;11.062;2023-03-01T05:51:53;101206.60;;;5.77;57.15
76808;BME280;65758;45.458;11.062;2023-03-01T05:54:21;101202.32;;;5.78;56.90
76808;BME280;65758;45.458;11.062;2023-03-01T05:56:48;101202.75;;;5.79;57.46
76808;BME280;65758;45.458;11.062;2023-03-01T05:59:14;101202.45;;;5.81;56.97
76808;BME280;65758;45.458;11.062;2023-03-01T06:01:43;101200.56;;;5.77;57.35
76808;BME280;65758;45.458;11.062;2023-03-01T06:04:10;101196.86;;;5.76;56.71
76808;BME280;65758;45.458;11.062;2023-03-01T06:06:37;101195.70;;;5.74;56.65
76808;BME280;65758;45.458;11.062;2023-03-01T06:09:05;101198.52;;;5.70;56.61
76808;BME280;65758;45.458;11.062;2023-03-01T06:11:34;101201.48;;;5.65;56.52
76808;BME280;65758;45.458;11.062;2023-03-01T06:14:02;101206.15;;;5.62;56.71
76808;BME280;65758;45.458;11.062;2023-03-01T06:16:29;101206.74;;;5.62;56.61
76808;BME280;65758;45.458;11.062;2023-03-01T06:18:56;101204.42;;;5.63;56.81
76808;BME280;65758;45.458;11.062;2023-03-01T06:21:24;101205.20;;;5.66;57.15
76808;BME280;65758;45.458;11.062;2023-03-01T06:23:51;101204.70;;;5.70;57.27
76808;BME280;65758;45.458;11.062;2023-03-01T06:26:18;101205.45;;;5.75;57.17
76808;BME280;65758;45.458;11.062;2023-03-01T06:28:45;101204.47;;;5.79;57.14
76808;BME280;65758;45.458;11.062;2023-03-01T06:31:12;101196.05;;;5.84;57.07
76808;BME280;65758;45.458;11.062;2023-03-01T06:33:39;101192.70;;;5.89;57.26
76808;BME280;65758;45.458;11.062;2023-03-01T06:36:07;101195.80;;;5.94;56.88
76808;BME280;65758;45.458;11.062;2023-03-01T06:38:34;101189.85;;;6.02;57.05
76808;BME280;65758;45.458;11.062;2023-03-01T06:41:00;101188.11;;;6.08;57.32
76808;BME280;65758;45.458;11.062;2023-03-01T06:43:28;101191.56;;;6.16;57.38
76808;BME280;65758;45.458;11.062;2023-03-01T06:45:55;101189.39;;;6.21;57.31
76808;BME280;65758;45.458;11.062;2023-03-01T06:48:22;101185.23;;;6.29;57.06
76808;BME280;65758;45.458;11.062;2023-03-01T06:50:49;101187.02;;;6.36;57.01
76808;BME280;65758;45.458;11.062;2023-03-01T06:53:15;101188.95;;;6.38;56.42
76808;BME280;65758;45.458;11.062;2023-03-01T06:55:42;101186.15;;;6.38;56.80
76808;BME280;65758;45.458;11.062;2023-03-01T06:58:09;101189.55;;;6.45;56.97
76808;BME280;65758;45.458;11.062;2023-03-01T07:00:36;101192.58;;;6.52;56.65
76808;BME280;65758;45.458;11.062;2023-03-01T07:03:03;101193.52;;;6.61;56.77
76808;BME280;65758;45.458;11.062;2023-03-01T07:05:30;101195.37;;;6.68;56.35
76808;BME280;65758;45.458;11.062;2023-03-01T07:07:57;101198.52;;;6.76;56.08
76808;BME280;65758;45.458;11.062;2023-03-01T07:10:24;101196.67;;;6.82;56.25
76808;BME280;65758;45.458;11.062;2023-03-01T07:12:54;101191.60;;;6.88;56.84
76808;BME280;65758;45.458;11.062;2023-03-01T07:15:21;101189.42;;;6.94;57.06
76808;BME280;65758;45.458;11.062;2023-03-01T07:17:48;101187.53;;;6.99;57.14
76808;BME280;65758;45.458;11.062;2023-03-01T07:20:18;101192.40;;;7.03;57.25
76808;BME280;65758;45.458;11.062;2023-03-01T07:22:45;101191.02;;;7.07;57.22
76808;BME280;65758;45.458;11.062;2023-03-01T07:25:12;101189.91;;;7.14;57.78
76808;BME280;65758;45.458;11.062;2023-03-01T07:27:38;101186.45;;;7.20;58.47
76808;BME280;65758;45.458;11.062;2023-03-01T07:30:05;101183.14;;;7.29;58.21
76808;BME280;65758;45.458;11.062;2023-03-01T07:32:32;101186.11;;;7.35;58.27
76808;BME280;65758;45.458;11.062;2023-03-01T07:34:59;101189.67;;;7.44;58.19
76808;BME280;65758;45.458;11.062;2023-03-01T07:37:26;101189.79;;;7.53;57.23
76808;BME280;65758;45.458;11.062;2023-03-01T07:39:52;101177.64;;;7.63;57.04
76808;BME280;65758;45.458;11.062;2023-03-01T07:42:19;101168.70;;;7.71;56.97
76808;BME280;65758;45.458;11.062;2023-03-01T07:44:46;101166.34;;;7.80;56.77
76808;BME280;65758;45.458;11.062;2023-03-01T07:47:13;101164.90;;;7.90;56.52
76808;BME280;65758;45.458;11.062;2023-03-01T07:49:40;101161.17;;;7.97;56.00
76808;BME280;65758;45.458;11.062;2023-03-01T07:52:06;101150.46;;;8.05;55.42
76808;BME280;65758;45.458;11.062;2023-03-01T07:54:35;101145.33;;;8.12;55.14
76808;BME280;65758;45.458;11.062;2023-03-01T07:57:02;101144.87;;;8.19;55.19
76808;BME280;65758;45.458;11.062;2023-03-01T07:59:29;101141.95;;;8.26;55.36
76808;BME280;65758;45.458;11.062;2023-03-01T08:01:56;101139.15;;;8.35;54.71
76808;BME280;65758;45.458;11.062;2023-03-01T08:04:24;101142.50;;;8.42;54.49
76808;BME280;65758;45.458;11.062;2023-03-01T08:06:56;101136.02;;;8.47;53.89
76808;BME280;65758;45.458;11.062;2023-03-01T08:09:23;101132.83;;;8.56;53.85
76808;BME280;65758;45.458;11.062;2023-03-01T08:11:49;101122.86;;;8.66;53.66
76808;BME280;65758;45.458;11.062;2023-03-01T08:14:16;101122.03;;;8.74;53.44
76808;BME280;65758;45.458;11.062;2023-03-01T08:16:43;101114.40;;;8.79;54.06
76808;BME280;65758;45.458;11.062;2023-03-01T08:19:11;101113.45;;;8.85;54.11
76808;BME280;65758;45.458;11.062;2023-03-01T08:21:38;101111.52;;;8.90;54.03
76808;BME280;65758;45.458;11.062;2023-03-01T08:24:06;101109.81;;;8.96;54.19
76808;BME280;65758;45.458;11.062;2023-03-01T08:26:33;101112.14;;;9.02;53.81
76808;BME280;65758;45.458;11.062;2023-03-01T08:29:00;101102.58;;;9.11;53.83
76808;BME280;65758;45.458;11.062;2023-03-01T08:31:37;101101.11;;;9.19;53.79
76808;BME280;65758;45.458;11.062;2023-03-01T08:34:07;101102.46;;;9.27;53.19
76808;BME280;65758;45.458;11.062;2023-03-01T08:36:37;101101.65;;;9.28;52.97
76808;BME280;65758;45.458;11.062;2023-03-01T08:39:05;101105.73;;;9.28;52.75
76808;BME280;65758;45.458;11.062;2023-03-01T08:41:32;101110.61;;;9.26;52.82
76808;BME280;65758;45.458;11.062;2023-03-01T08:43:59;101113.30;;;9.23;52.84
76808;BME280;65758;45.458;11.062;2023-03-01T08:46:31;101109.77;;;9.21;53.21
76808;BME280;65758;45.458;11.062;2023-03-01T08:48:59;101106.44;;;9.22;53.31
76808;BME280;65758;45.458;11.062;2023-03-01T08:51:26;101099.09;;;9.22;53.09
76808;BME280;65758;45.458;11.062;2023-03-01T08:53:53;101090.83;;;9.23;53.22
76808;BME280;65758;45.458;11.062;2023-03-01T08:56:20;101084.95;;;9.26;53.20
76808;BME280;65758;45.458;11.062;2023-03-01T08:58:47;101079.52;;;9.31;53.80
76808;BME280;65758;45.458;11.062;2023-03-01T09:01:17;101072.99;;;9.39;53.68
76808;BME280;65758;45.458;11.062;2023-03-01T09:03:45;101074.09;;;9.43;53.13
76808;BME280;65758;45.458;11.062;2023-03-01T09:06:13;101075.90;;;9.45;52.75
76808;BME280;65758;45.458;11.062;2023-03-01T09:08:46;101072.92;;;9.45;52.63
76808;BME280;65758;45.458;11.062;2023-03-01T09:11:15;101073.64;;;9.45;52.84
76808;BME280;65758;45.458;11.062;2023-03-01T09:13:44;101073.51;;;9.46;52.81
76808;BME280;65758;45.458;11.062;2023-03-01T09:16:13;101071.61;;;9.47;52.87
76808;BME280;65758;45.458;11.062;2023-03-01T09:18:40;101066.66;;;9.48;52.56
76808;BME280;65758;45.458;11.062;2023-03-01T09:23:37;101062.70;;;9.54;52.34
76808;BME280;65758;45.458;11.062;2023-03-01T09:26:06;101056.52;;;9.58;52.16
76808;BME280;65758;45.458;11.062;2023-03-01T09:28:35;101053.77;;;9.63;52.13
76808;BME280;65758;45.458;11.062;2023-03-01T09:31:03;101047.80;;;9.64;51.76
76808;BME280;65758;45.458;11.062;2023-03-01T09:33:31;101050.03;;;9.65;51.31
76808;BME280;65758;45.458;11.062;2023-03-01T09:36:04;101053.09;;;9.68;51.45
76808;BME280;65758;45.458;11.062;2023-03-01T09:38:31;101049.65;;;9.70;51.54
76808;BME280;65758;45.458;11.062;2023-03-01T09:40:59;101049.44;;;9.72;51.57
76808;BME280;65758;45.458;11.062;2023-03-01T09:43:35;101040.95;;;9.71;51.49
76808;BME280;65758;45.458;11.062;2023-03-01T09:46:09;101039.27;;;9.73;51.18
76808;BME280;65758;45.458;11.062;2023-03-01T09:48:55;101043.40;;;9.75;51.69
76808;BME280;65758;45.458;11.062;2023-03-01T09:51:27;101033.35;;;9.81;51.24
76808;BME280;65758;45.458;11.062;2023-03-01T09:53:56;101030.83;;;9.88;51.07
76808;BME280;65758;45.458;11.062;2023-03-01T10:01:52;101015.27;;;10.01;50.20
76808;BME280;65758;45.458;11.062;2023-03-01T10:04:41;101008.65;;;10.04;50.38
76808;BME280;65758;45.458;11.062;2023-03-01T10:07:32;101010.58;;;10.10;50.38
76808;BME280;65758;45.458;11.062;2023-03-01T10:10:06;101014.74;;;10.15;50.86
76808;BME280;65758;45.458;11.062;2023-03-01T10:12:40;101014.72;;;10.19;50.53
76808;BME280;65758;45.458;11.062;2023-03-01T10:15:16;101016.92;;;10.26;50.11
76808;BME280;65758;45.458;11.062;2023-03-01T10:17:46;101017.68;;;10.33;50.43
76808;BME280;65758;45.458;11.062;2023-03-01T10:23:04;101008.96;;;10.50;50.22
76808;BME280;65758;45.458;11.062;2023-03-01T10:31:03;101005.11;;;10.85;50.97
76808;BME280;65758;45.458;11.062;2023-03-01T10:33:32;101007.21;;;10.96;49.75
76808;BME280;65758;45.458;11.062;2023-03-01T10:36:02;101000.80;;;11.06;48.69
76808;BME280;65758;45.458;11.062;2023-03-01T10:38:31;101002.60;;;11.13;48.69
76808;BME280;65758;45.458;11.062;2023-03-01T10:41:12;101000.67;;;11.17;48.07
76808;BME280;65758;45.458;11.062;2023-03-01T10:43:46;100992.70;;;11.14;47.87
76808;BME280;65758;45.458;11.062;2023-03-01T10:46:23;100984.45;;;11.12;47.82
76808;BME280;65758;45.458;11.062;2023-03-01T10:49:22;100982.13;;;11.12;47.68
76808;BME280;65758;45.458;11.062;2023-03-01T10:51:51;100982.27;;;11.15;47.67
76808;BME280;65758;45.458;11.062;2023-03-01T10:56:53;100979.73;;;11.19;47.46
76808;BME280;65758;45.458;11.062;2023-03-01T10:59:33;100982.54;;;11.26;47.18
76808;BME280;65758;45.458;11.062;2023-03-01T11:05:03;100972.52;;;11.56;47.22
76808;BME280;65758;45.458;11.062;2023-03-01T11:07:51;100973.80;;;11.74;47.13
76808;BME280;65758;45.458;11.062;2023-03-01T11:10:25;100980.56;;;11.85;46.96
76808;BME280;65758;45.458;11.062;2023-03-01T11:12:52;100980.66;;;11.89;46.26
76808;BME280;65758;45.458;11.062;2023-03-01T11:15:23;100986.85;;;11.87;46.21
76808;BME280;65758;45.458;11.062;2023-03-01T11:17:50;100981.77;;;11.83;46.14
76808;BME280;65758;45.458;11.062;2023-03-01T11:22:58;100987.34;;;11.85;45.71
76808;BME280;65758;45.458;11.062;2023-03-01T11:25:31;100985.30;;;11.89;45.44
76808;BME280;65758;45.458;11.062;2023-03-01T11:28:01;100995.09;;;11.90;45.95
76808;BME280;65758;45.458;11.062;2023-03-01T11:30:35;101000.23;;;11.88;45.51
76808;BME280;65758;45.458;11.062;2023-03-01T11:35:37;101007.85;;;11.77;45.83
76808;BME280;65758;45.458;11.062;2023-03-01T11:38:20;101006.21;;;11.71;45.30
76808;BME280;65758;45.458;11.062;2023-03-01T11:54:46;101023.60;;;11.52;48.58
76808;BME280;65758;45.458;11.062;2023-03-01T11:57:33;101017.48;;;11.49;49.51
76808;BME280;65758;45.458;11.062;2023-03-01T12:09:48;101021.61;;;11.40;50.13
76808;BME280;65758;45.458;11.062;2023-03-01T12:11:54;101020.39;;;11.34;50.08
76808;BME280;65758;45.458;11.062;2023-03-01T12:14:30;101024.39;;;11.27;50.55
76808;BME280;65758;45.458;11.062;2023-03-01T12:19:44;101039.66;;;11.05;50.32
76808;BME280;65758;45.458;11.062;2023-03-01T12:27:59;101040.52;;;10.78;53.09
76808;BME280;65758;45.458;11.062;2023-03-01T12:33:08;101041.04;;;10.62;53.76
76808;BME280;65758;45.458;11.062;2023-03-01T12:49:09;101023.73;;;10.20;55.06
76808;BME280;65758;45.458;11.062;2023-03-01T12:51:38;101016.90;;;10.20;54.97
76808;BME280;65758;45.458;11.062;2023-03-01T12:54:20;101006.84;;;10.21;55.01
76808;BME280;65758;45.458;11.062;2023-03-01T12:56:53;100996.01;;;10.27;54.90
76808;BME280;65758;45.458;11.062;2023-03-01T12:59:38;100987.02;;;10.32;55.05
76808;BME280;65758;45.458;11.062;2023-03-01T13:08:08;100978.16;;;10.40;53.90
76808;BME280;65758;45.458;11.062;2023-03-01T13:11:21;100984.45;;;10.41;54.21
76808;BME280;65758;45.458;11.062;2023-03-01T13:13:48;100980.52;;;10.41;53.82
76808;BME280;65758;45.458;11.062;2023-03-01T13:19:19;100979.08;;;10.44;53.60
76808;BME280;65758;45.458;11.062;2023-03-01T13:21:48;100971.08;;;10.45;53.42
76808;BME280;65758;45.458;11.062;2023-03-01T13:24:39;100966.59;;;10.47;53.32
76808;BME280;65758;45.458;11.062;2023-03-01T13:29:52;100957.80;;;10.51;53.15
76808;BME280;65758;45.458;11.062;2023-03-01T13:35:02;100958.34;;;10.60;52.54
76808;BME280;65758;45.458;11.062;2023-03-01T13:37:33;100960.95;;;10.60;50.94
76808;BME280;65758;45.458;11.062;2023-03-01T13:42:53;100963.81;;;10.59;50.39
76808;BME280;65758;45.458;11.062;2023-03-01T13:45:42;100946.38;;;10.57;50.06
76808;BME280;65758;45.458;11.062;2023-03-01T13:48:24;100945.91;;;10.55;50.40
76808;BME280;65758;45.458;11.062;2023-03-01T13:50:57;100949.19;;;10.55;50.31
76808;BME280;65758;45.458;11.062;2023-03-01T13:53:27;100944.08;;;10.53;50.28
76808;BME280;65758;45.458;11.062;2023-03-01T13:56:02;100947.49;;;10.52;50.56
76808;BME280;65758;45.458;11.062;2023-03-01T13:58:31;100947.25;;;10.51;50.29
76808;BME280;65758;45.458;11.062;2023-03-01T14:01:04;100949.69;;;10.50;50.80
76808;BME280;65758;45.458;11.062;2023-03-01T14:03:32;100960.25;;;10.52;50.86
76808;BME280;65758;45.458;11.062;2023-03-01T14:06:09;100964.27;;;10.48;51.18
76808;BME280;65758;45.458;11.062;2023-03-01T14:08:44;100967.30;;;10.42;51.65
76808;BME280;65758;45.458;11.062;2023-03-01T14:19:45;100970.10;;;10.17;53.89
76808;BME280;65758;45.458;11.062;2023-03-01T14:22:45;100974.73;;;10.10;54.00
76808;BME280;65758;45.458;11.062;2023-03-01T14:25:19;100983.52;;;10.03;54.82
76808;BME280;65758;45.458;11.062;2023-03-01T14:27:50;100989.48;;;9.93;55.62
76808;BME280;65758;45.458;11.062;2023-03-01T14:30:21;100983.28;;;9.79;56.51
76808;BME280;65758;45.458;11.062;2023-03-01T14:33:31;100987.31;;;9.68;57.28
76808;BME280;65758;45.458;11.062;2023-03-01T14:36:11;100984.93;;;9.47;58.52
76808;BME280;65758;45.458;11.062;2023-03-01T14:38:41;100982.48;;;9.32;59.54
76808;BME280;65758;45.458;11.062;2023-03-01T14:41:22;100979.47;;;9.22;59.97
76808;BME280;65758;45.458;11.062;2023-03-01T14:43:52;100972.66;;;9.15;60.19
76808;BME280;65758;45.458;11.062;2023-03-01T14:46:22;100972.50;;;9.11;60.48
76808;BME280;65758;45.458;11.062;2023-03-01T14:48:53;100970.51;;;9.07;60.50
76808;BME280;65758;45.458;11.062;2023-03-01T14:51:20;100965.10;;;9.05;60.65
76808;BME280;65758;45.458;11.062;2023-03-01T14:53:47;100965.74;;;9.06;61.05